sensor_id;sensor_type;location;lat;lon;timestamp;P1;durP1;ratioP1;P2;durP2;ratioP2
68076;SDS011;54866;53.458;14.540;2023-05-29T00:02:10;6.70;;;3.90;;
68076;SDS011;54866;53.458;14.540;2023-05-29T00:04:40;6.60;;;3.70;;
68076;SDS011;54866;53.458;14.540;2023-05-29T00:07:09;6.80;;;3.60;;
68076;SDS011;54866;53.458;14.540;2023-05-29T00:09:39;5.20;;;3.40;;
68076;SDS011;54866;53.458;14.540;2023-05-29T00:12:08;5.60;;;3.00;;
68076;SDS011;54866;53.458;14.540;2023-05-29T00:14:38;8.20;;;3.70;;
68076;SDS011;54866;53.458;14.540;2023-05-29T00:17:08;5.80;;;3.00;;
68076;SDS011;54866;53.458;14.540;2023-05-29T00:19:39;4.60;;;2.80;;
68076;SDS011;54866;53.458;14.540;2023-05-29T00:22:08;4.60;;;2.60;;
68076;SDS011;54866;53.458;14.540;2023-05-29T00:24:39;4.90;;;3.50;;
68076;SDS011;54866;53.458;14.540;2023-05-29T00:27:08;4.30;;;2.70;;
68076;SDS011;54866;53.458;14.540;2023-05-29T00:29:40;5.40;;;2.80;;
68076;SDS011;54866;53.458;14.540;2023-05-29T00:32:10;4.90;;;2.70;;
68076;SDS011;54866;53.458;14.540;2023-05-29T00:34:39;3.90;;;2.50;;
68076;SDS011;54866;53.458;14.540;2023-05-29T00:37:09;5.40;;;2.60;;
68076;SDS011;54866;53.458;14.540;2023-05-29T00:39:38;5.30;;;2.80;;
68076;SDS011;54866;53.458;14.540;2023-05-29T00:42:08;6.00;;;3.20;;
68076;SDS011;54866;53.458;14.540;2023-05-29T00:44:37;4.40;;;2.90;;
68076;SDS011;54866;53.458;14.540;2023-05-29T00:47:07;5.40;;;2.90;;
68076;SDS011;54866;53.458;14.540;2023-05-29T00:49:37;5.00;;;2.90;;
68076;SDS011;54866;53.458;14.540;2023-05-29T00:52:07;5.40;;;2.90;;
68076;SDS011;54866;53.458;14.540;2023-05-29T00:54:42;5.50;;;3.00;;
68076;SDS011;54866;53.458;14.540;2023-05-29T00:57:13;5.50;;;2.90;;
68076;SDS011;54866;53.458;14.540;2023-05-29T00:59:44;4.50;;;2.90;;
68076;SDS011;54866;53.458;14.540;2023-05-29T01:02:15;4.30;;;2.40;;
68076;SDS011;54866;53.458;14.540;2023-05-29T01:04:47;5.50;;;3.10;;
68076;SDS011;54866;53.458;14.540;2023-05-29T01:07:20;6.40;;;3.60;;
68076;SDS011;54866;53.458;14.540;2023-05-29T01:09:50;4.70;;;2.90;;
68076;SDS011;54866;53.458;14.540;2023-05-29T01:12:23;5.50;;;2.90;;
68076;SDS011;54866;53.458;14.540;2023-05-29T01:15:08;5.20;;;3.30;;
68076;SDS011;54866;53.458;14.540;2023-05-29T01:17:47;4.20;;;2.50;;
68076;SDS011;54866;53.458;14.540;2023-05-29T01:20:30;5.30;;;2.70;;
68076;SDS011;54866;53.458;14.540;2023-05-29T01:23:11;5.30;;;2.70;;
68076;SDS011;54866;53.458;14.540;2023-05-29T01:26:03;4.50;;;2.80;;
68076;SDS011;54866;53.458;14.540;2023-05-29T01:28:42;5.10;;;3.10;;
68076;SDS011;54866;53.458;14.540;2023-05-29T01:31:16;4.70;;;2.40;;
68076;SDS011;54866;53.458;14.540;2023-05-29T01:33:52;4.50;;;2.70;;
68076;SDS011;54866;53.458;14.540;2023-05-29T01:36:23;7.00;;;3.20;;
68076;SDS011;54866;53.458;14.540;2023-05-29T01:38:54;5.40;;;3.00;;
68076;SDS011;54866;53.458;14.540;2023-05-29T01:41:25;4.30;;;2.40;;
68076;SDS011;54866;53.458;14.540;2023-05-29T01:43:56;6.20;;;3.90;;
68076;SDS011;54866;53.458;14.540;2023-05-29T01:46:27;7.40;;;4.00;;
68076;SDS011;54866;53.458;14.540;2023-05-29T01:48:57;8.00;;;4.90;;
68076;SDS011;54866;53.458;14.540;2023-05-29T01:51:26;6.80;;;4.40;;
68076;SDS011;54866;53.458;14.540;2023-05-29T01:53:58;7.50;;;4.20;;
68076;SDS011;54866;53.458;14.540;2023-05-29T01:56:28;7.60;;;4.10;;
68076;SDS011;54866;53.458;14.540;2023-05-29T01:58:59;7.10;;;4.00;;
68076;SDS011;54866;53.458;14.540;2023-05-29T02:01:31;8.30;;;4.40;;
68076;SDS011;54866;53.458;14.540;2023-05-29T02:04:01;8.50;;;4.40;;
68076;SDS011;54866;53.458;14.540;2023-05-29T02:06:30;7.90;;;4.40;;
68076;SDS011;54866;53.458;14.540;2023-05-29T02:09:00;7.10;;;4.10;;
68076;SDS011;54866;53.458;14.540;2023-05-29T02:11:30;6.80;;;3.80;;
68076;SDS011;54866;53.458;14.540;2023-05-29T02:14:00;5.70;;;3.50;;
68076;SDS011;54866;53.458;14.540;2023-05-29T02:16:30;7.00;;;3.60;;
68076;SDS011;54866;53.458;14.540;2023-05-29T02:19:00;7.00;;;3.30;;
68076;SDS011;54866;53.458;14.540;2023-05-29T02:21:30;6.40;;;3.70;;
68076;SDS011;54866;53.458;14.540;2023-05-29T02:24:00;8.50;;;4.30;;
68076;SDS011;54866;53.458;14.540;2023-05-29T02:26:29;8.80;;;3.60;;
68076;SDS011;54866;53.458;14.540;2023-05-29T02:28:59;7.90;;;3.70;;
68076;SDS011;54866;53.458;14.540;2023-05-29T02:31:29;7.90;;;4.20;;
68076;SDS011;54866;53.458;14.540;2023-05-29T02:33:59;6.60;;;3.70;;
68076;SDS011;54866;53.458;14.540;2023-05-29T02:36:28;6.30;;;4.30;;
68076;SDS011;54866;53.458;14.540;2023-05-29T02:38:58;6.60;;;3.70;;
68076;SDS011;54866;53.458;14.540;2023-05-29T02:41:28;6.70;;;4.40;;
68076;SDS011;54866;53.458;14.540;2023-05-29T02:43:57;7.40;;;3.70;;
68076;SDS011;54866;53.458;14.540;2023-05-29T02:46:27;6.00;;;3.90;;
68076;SDS011;54866;53.458;14.540;2023-05-29T02:48:56;7.90;;;4.60;;
68076;SDS011;54866;53.458;14.540;2023-05-29T02:51:26;5.50;;;4.60;;
68076;SDS011;54866;53.458;14.540;2023-05-29T02:53:56;6.80;;;4.40;;
68076;SDS011;54866;53.458;14.540;2023-05-29T02:56:26;7.60;;;4.60;;
68076;SDS011;54866;53.458;14.540;2023-05-29T02:58:56;7.80;;;5.10;;
68076;SDS011;54866;53.458;14.540;2023-05-29T03:01:26;7.70;;;5.70;;
68076;SDS011;54866;53.458;14.540;2023-05-29T03:03:56;6.20;;;4.80;;
68076;SDS011;54866;53.458;14.540;2023-05-29T03:06:26;7.70;;;4.60;;
68076;SDS011;54866;53.458;14.540;2023-05-29T03:08:55;9.80;;;5.10;;
68076;SDS011;54866;53.458;14.540;2023-05-29T03:11:26;8.20;;;5.20;;
68076;SDS011;54866;53.458;14.540;2023-05-29T03:13:57;9.30;;;5.40;;
68076;SDS011;54866;53.458;14.540;2023-05-29T03:16:26;7.50;;;4.90;;
68076;SDS011;54866;53.458;14.540;2023-05-29T03:18:56;7.50;;;4.50;;
68076;SDS011;54866;53.458;14.540;2023-05-29T03:21:26;8.30;;;4.60;;
68076;SDS011;54866;53.458;14.540;2023-05-29T03:23:55;6.20;;;4.40;;
68076;SDS011;54866;53.458;14.540;2023-05-29T03:26:25;5.80;;;3.60;;
68076;SDS011;54866;53.458;14.540;2023-05-29T03:28:55;6.00;;;3.70;;
68076;SDS011;54866;53.458;14.540;2023-05-29T03:31:24;4.70;;;3.80;;
68076;SDS011;54866;53.458;14.540;2023-05-29T03:33:54;6.50;;;3.60;;
68076;SDS011;54866;53.458;14.540;2023-05-29T03:36:23;5.90;;;3.40;;
68076;SDS011;54866;53.458;14.540;2023-05-29T03:38:53;5.80;;;3.80;;
68076;SDS011;54866;53.458;14.540;2023-05-29T03:41:23;7.30;;;4.40;;
68076;SDS011;54866;53.458;14.540;2023-05-29T03:43:53;7.20;;;4.80;;
68076;SDS011;54866;53.458;14.540;2023-05-29T03:46:22;8.10;;;3.90;;
68076;SDS011;54866;53.458;14.540;2023-05-29T03:48:53;4.50;;;2.90;;
68076;SDS011;54866;53.458;14.540;2023-05-29T03:51:23;5.40;;;3.10;;
68076;SDS011;54866;53.458;14.540;2023-05-29T03:53:53;8.10;;;3.60;;
68076;SDS011;54866;53.458;14.540;2023-05-29T03:56:22;6.10;;;3.20;;
68076;SDS011;54866;53.458;14.540;2023-05-29T03:58:53;5.50;;;3.20;;
68076;SDS011;54866;53.458;14.540;2023-05-29T04:01:22;5.30;;;3.30;;
68076;SDS011;54866;53.458;14.540;2023-05-29T04:03:52;4.90;;;2.90;;
68076;SDS011;54866;53.458;14.540;2023-05-29T04:06:22;6.40;;;3.80;;
68076;SDS011;54866;53.458;14.540;2023-05-29T04:08:52;6.00;;;3.10;;
68076;SDS011;54866;53.458;14.540;2023-05-29T04:11:21;5.10;;;3.10;;
68076;SDS011;54866;53.458;14.540;2023-05-29T04:13:51;5.90;;;3.50;;
68076;SDS011;54866;53.458;14.540;2023-05-29T04:16:21;5.10;;;3.10;;
68076;SDS011;54866;53.458;14.540;2023-05-29T04:18:50;6.90;;;3.90;;
68076;SDS011;54866;53.458;14.540;2023-05-29T04:21:20;7.30;;;3.90;;
68076;SDS011;54866;53.458;14.540;2023-05-29T04:23:50;5.70;;;3.40;;
68076;SDS011;54866;53.458;14.540;2023-05-29T04:26:21;5.60;;;4.00;;
68076;SDS011;54866;53.458;14.540;2023-05-29T04:28:53;7.30;;;3.70;;
68076;SDS011;54866;53.458;14.540;2023-05-29T04:31:24;6.90;;;3.80;;
68076;SDS011;54866;53.458;14.540;2023-05-29T04:33:54;6.20;;;3.80;;
68076;SDS011;54866;53.458;14.540;2023-05-29T04:36:27;5.30;;;3.30;;
68076;SDS011;54866;53.458;14.540;2023-05-29T04:38:59;6.50;;;4.00;;
68076;SDS011;54866;53.458;14.540;2023-05-29T04:41:29;8.80;;;4.00;;
68076;SDS011;54866;53.458;14.540;2023-05-29T04:43:58;6.70;;;3.80;;
68076;SDS011;54866;53.458;14.540;2023-05-29T04:46:28;9.70;;;4.50;;
68076;SDS011;54866;53.458;14.540;2023-05-29T04:48:58;6.40;;;4.10;;
68076;SDS011;54866;53.458;14.540;2023-05-29T04:51:29;10.50;;;4.70;;
68076;SDS011;54866;53.458;14.540;2023-05-29T04:53:59;5.00;;;4.30;;
68076;SDS011;54866;53.458;14.540;2023-05-29T04:56:29;6.20;;;4.30;;
68076;SDS011;54866;53.458;14.540;2023-05-29T04:58:58;10.80;;;5.00;;
68076;SDS011;54866;53.458;14.540;2023-05-29T05:01:28;7.20;;;4.20;;
68076;SDS011;54866;53.458;14.540;2023-05-29T05:03:59;7.60;;;4.40;;
68076;SDS011;54866;53.458;14.540;2023-05-29T05:06:29;8.20;;;4.40;;
68076;SDS011;54866;53.458;14.540;2023-05-29T05:08:59;8.90;;;3.90;;
68076;SDS011;54866;53.458;14.540;2023-05-29T05:11:28;10.10;;;4.10;;
68076;SDS011;54866;53.458;14.540;2023-05-29T05:13:58;6.80;;;3.80;;
68076;SDS011;54866;53.458;14.540;2023-05-29T05:16:27;5.60;;;3.40;;
68076;SDS011;54866;53.458;14.540;2023-05-29T05:18:58;5.00;;;3.20;;
68076;SDS011;54866;53.458;14.540;2023-05-29T05:21:27;7.80;;;4.30;;
68076;SDS011;54866;53.458;14.540;2023-05-29T05:23:59;5.90;;;3.70;;
68076;SDS011;54866;53.458;14.540;2023-05-29T05:26:29;5.60;;;3.20;;
68076;SDS011;54866;53.458;14.540;2023-05-29T05:28:58;6.00;;;3.30;;
68076;SDS011;54866;53.458;14.540;2023-05-29T05:31:28;7.00;;;2.80;;
68076;SDS011;54866;53.458;14.540;2023-05-29T05:33:58;7.20;;;2.80;;
68076;SDS011;54866;53.458;14.540;2023-05-29T05:36:27;6.00;;;2.80;;
68076;SDS011;54866;53.458;14.540;2023-05-29T05:38:57;6.40;;;2.60;;
68076;SDS011;54866;53.458;14.540;2023-05-29T05:41:27;4.30;;;2.30;;
68076;SDS011;54866;53.458;14.540;2023-05-29T05:43:57;5.80;;;2.80;;
68076;SDS011;54866;53.458;14.540;2023-05-29T05:46:27;6.10;;;2.50;;
68076;SDS011;54866;53.458;14.540;2023-05-29T05:48:57;6.80;;;2.40;;
68076;SDS011;54866;53.458;14.540;2023-05-29T05:51:27;5.30;;;2.50;;
68076;SDS011;54866;53.458;14.540;2023-05-29T05:53:57;6.00;;;2.60;;
68076;SDS011;54866;53.458;14.540;2023-05-29T05:56:27;5.60;;;2.90;;
68076;SDS011;54866;53.458;14.540;2023-05-29T05:58:56;4.20;;;2.50;;
68076;SDS011;54866;53.458;14.540;2023-05-29T06:01:26;5.90;;;2.70;;
68076;SDS011;54866;53.458;14.540;2023-05-29T06:03:55;6.60;;;3.30;;
68076;SDS011;54866;53.458;14.540;2023-05-29T06:06:25;6.50;;;3.10;;
68076;SDS011;54866;53.458;14.540;2023-05-29T06:08:54;6.10;;;3.10;;
68076;SDS011;54866;53.458;14.540;2023-05-29T06:11:24;4.70;;;3.00;;
68076;SDS011;54866;53.458;14.540;2023-05-29T06:13:54;5.70;;;2.70;;
68076;SDS011;54866;53.458;14.540;2023-05-29T06:16:24;5.10;;;2.70;;
68076;SDS011;54866;53.458;14.540;2023-05-29T06:18:54;6.20;;;3.10;;
68076;SDS011;54866;53.458;14.540;2023-05-29T06:21:24;4.40;;;2.60;;
68076;SDS011;54866;53.458;14.540;2023-05-29T06:23:53;5.60;;;2.50;;
68076;SDS011;54866;53.458;14.540;2023-05-29T06:26:23;6.00;;;2.50;;
68076;SDS011;54866;53.458;14.540;2023-05-29T06:28:53;4.80;;;2.70;;
68076;SDS011;54866;53.458;14.540;2023-05-29T06:31:22;5.50;;;2.50;;
68076;SDS011;54866;53.458;14.540;2023-05-29T06:33:52;5.10;;;2.40;;
68076;SDS011;54866;53.458;14.540;2023-05-29T06:36:23;5.90;;;2.10;;
68076;SDS011;54866;53.458;14.540;2023-05-29T06:38:53;6.50;;;2.20;;
68076;SDS011;54866;53.458;14.540;2023-05-29T06:41:23;6.70;;;2.50;;
68076;SDS011;54866;53.458;14.540;2023-05-29T06:43:52;5.90;;;2.30;;
68076;SDS011;54866;53.458;14.540;2023-05-29T06:46:22;7.10;;;2.60;;
68076;SDS011;54866;53.458;14.540;2023-05-29T06:48:51;5.30;;;1.90;;
68076;SDS011;54866;53.458;14.540;2023-05-29T06:51:21;5.40;;;2.30;;
68076;SDS011;54866;53.458;14.540;2023-05-29T06:53:50;4.70;;;1.60;;
68076;SDS011;54866;53.458;14.540;2023-05-29T06:56:20;6.50;;;2.60;;
68076;SDS011;54866;53.458;14.540;2023-05-29T06:58:49;5.40;;;1.90;;
68076;SDS011;54866;53.458;14.540;2023-05-29T07:01:20;5.20;;;2.00;;
68076;SDS011;54866;53.458;14.540;2023-05-29T07:03:52;4.40;;;2.40;;
68076;SDS011;54866;53.458;14.540;2023-05-29T07:06:22;5.50;;;2.10;;
68076;SDS011;54866;53.458;14.540;2023-05-29T07:08:52;5.50;;;2.80;;
68076;SDS011;54866;53.458;14.540;2023-05-29T07:11:21;5.00;;;1.80;;
68076;SDS011;54866;53.458;14.540;2023-05-29T07:13:52;5.50;;;2.00;;
68076;SDS011;54866;53.458;14.540;2023-05-29T07:16:22;5.60;;;1.90;;
68076;SDS011;54866;53.458;14.540;2023-05-29T07:18:52;4.50;;;1.80;;
68076;SDS011;54866;53.458;14.540;2023-05-29T07:21:22;6.10;;;2.10;;
68076;SDS011;54866;53.458;14.540;2023-05-29T07:23:51;4.90;;;1.80;;
68076;SDS011;54866;53.458;14.540;2023-05-29T07:26:21;5.20;;;2.00;;
68076;SDS011;54866;53.458;14.540;2023-05-29T07:28:52;5.20;;;2.10;;
68076;SDS011;54866;53.458;14.540;2023-05-29T07:31:21;5.80;;;2.30;;
68076;SDS011;54866;53.458;14.540;2023-05-29T07:33:51;5.90;;;2.00;;
68076;SDS011;54866;53.458;14.540;2023-05-29T07:36:21;6.20;;;1.90;;
68076;SDS011;54866;53.458;14.540;2023-05-29T07:38:51;4.20;;;2.20;;
68076;SDS011;54866;53.458;14.540;2023-05-29T07:41:26;6.30;;;2.80;;
68076;SDS011;54866;53.458;14.540;2023-05-29T07:43:55;6.00;;;2.40;;
68076;SDS011;54866;53.458;14.540;2023-05-29T07:46:25;5.60;;;2.10;;
68076;SDS011;54866;53.458;14.540;2023-05-29T07:48:55;5.40;;;2.20;;
68076;SDS011;54866;53.458;14.540;2023-05-29T07:51:24;6.00;;;2.30;;
68076;SDS011;54866;53.458;14.540;2023-05-29T07:53:54;8.00;;;3.00;;
68076;SDS011;54866;53.458;14.540;2023-05-29T07:56:23;8.60;;;2.90;;
68076;SDS011;54866;53.458;14.540;2023-05-29T07:58:53;9.60;;;5.20;;
68076;SDS011;54866;53.458;14.540;2023-05-29T08:01:23;8.20;;;4.20;;
68076;SDS011;54866;53.458;14.540;2023-05-29T08:03:52;8.10;;;3.60;;
68076;SDS011;54866;53.458;14.540;2023-05-29T08:06:22;7.30;;;3.50;;
68076;SDS011;54866;53.458;14.540;2023-05-29T08:08:51;8.90;;;4.30;;
68076;SDS011;54866;53.458;14.540;2023-05-29T08:11:22;7.90;;;3.30;;
68076;SDS011;54866;53.458;14.540;2023-05-29T08:13:52;8.40;;;3.20;;
68076;SDS011;54866;53.458;14.540;2023-05-29T08:16:21;8.10;;;2.50;;
68076;SDS011;54866;53.458;14.540;2023-05-29T08:18:51;4.20;;;2.10;;
68076;SDS011;54866;53.458;14.540;2023-05-29T08:21:21;3.90;;;2.10;;
68076;SDS011;54866;53.458;14.540;2023-05-29T08:23:52;4.50;;;2.40;;
68076;SDS011;54866;53.458;14.540;2023-05-29T08:26:21;5.20;;;2.10;;
68076;SDS011;54866;53.458;14.540;2023-05-29T08:28:51;4.90;;;2.40;;
68076;SDS011;54866;53.458;14.540;2023-05-29T08:31:21;6.10;;;2.20;;
68076;SDS011;54866;53.458;14.540;2023-05-29T08:33:52;6.90;;;1.90;;
68076;SDS011;54866;53.458;14.540;2023-05-29T08:36:21;6.10;;;2.50;;
68076;SDS011;54866;53.458;14.540;2023-05-29T08:38:53;4.80;;;2.00;;
68076;SDS011;54866;53.458;14.540;2023-05-29T08:41:24;4.50;;;1.80;;
68076;SDS011;54866;53.458;14.540;2023-05-29T08:43:56;5.10;;;2.10;;
68076;SDS011;54866;53.458;14.540;2023-05-29T08:46:31;4.90;;;2.50;;
68076;SDS011;54866;53.458;14.540;2023-05-29T08:49:01;4.30;;;2.00;;
68076;SDS011;54866;53.458;14.540;2023-05-29T08:51:32;4.30;;;2.20;;
68076;SDS011;54866;53.458;14.540;2023-05-29T08:54:10;5.40;;;2.30;;
68076;SDS011;54866;53.458;14.540;2023-05-29T08:56:42;6.40;;;2.50;;
68076;SDS011;54866;53.458;14.540;2023-05-29T08:59:12;4.40;;;2.40;;
68076;SDS011;54866;53.458;14.540;2023-05-29T09:01:44;4.80;;;2.40;;
68076;SDS011;54866;53.458;14.540;2023-05-29T09:04:14;6.70;;;2.40;;
68076;SDS011;54866;53.458;14.540;2023-05-29T09:06:45;5.60;;;2.50;;
68076;SDS011;54866;53.458;14.540;2023-05-29T09:09:15;6.00;;;2.60;;
68076;SDS011;54866;53.458;14.540;2023-05-29T09:11:44;4.40;;;2.00;;
68076;SDS011;54866;53.458;14.540;2023-05-29T09:17:06;5.10;;;2.50;;
68076;SDS011;54866;53.458;14.540;2023-05-29T09:19:37;5.90;;;2.60;;
68076;SDS011;54866;53.458;14.540;2023-05-29T09:22:09;7.20;;;2.90;;
68076;SDS011;54866;53.458;14.540;2023-05-29T09:24:42;8.20;;;4.20;;
68076;SDS011;54866;53.458;14.540;2023-05-29T09:27:15;6.10;;;2.50;;
68076;SDS011;54866;53.458;14.540;2023-05-29T09:29:45;5.00;;;2.50;;
68076;SDS011;54866;53.458;14.540;2023-05-29T09:32:15;5.50;;;2.40;;
68076;SDS011;54866;53.458;14.540;2023-05-29T09:34:45;6.10;;;2.70;;
68076;SDS011;54866;53.458;14.540;2023-05-29T09:37:15;5.20;;;2.50;;
68076;SDS011;54866;53.458;14.540;2023-05-29T09:39:49;6.50;;;2.50;;
68076;SDS011;54866;53.458;14.540;2023-05-29T09:42:19;4.60;;;2.20;;
68076;SDS011;54866;53.458;14.540;2023-05-29T09:44:50;8.90;;;4.40;;
68076;SDS011;54866;53.458;14.540;2023-05-29T09:47:20;5.80;;;2.80;;
68076;SDS011;54866;53.458;14.540;2023-05-29T09:49:50;6.00;;;2.50;;
68076;SDS011;54866;53.458;14.540;2023-05-29T09:52:21;6.80;;;2.90;;
68076;SDS011;54866;53.458;14.540;2023-05-29T09:54:51;4.20;;;2.10;;
68076;SDS011;54866;53.458;14.540;2023-05-29T09:57:23;4.90;;;1.90;;
68076;SDS011;54866;53.458;14.540;2023-05-29T09:59:54;5.70;;;2.30;;
68076;SDS011;54866;53.458;14.540;2023-05-29T10:02:24;6.60;;;3.10;;
68076;SDS011;54866;53.458;14.540;2023-05-29T10:04:55;5.70;;;2.30;;
68076;SDS011;54866;53.458;14.540;2023-05-29T10:07:27;4.30;;;2.20;;
68076;SDS011;54866;53.458;14.540;2023-05-29T10:12:30;4.60;;;2.00;;
68076;SDS011;54866;53.458;14.540;2023-05-29T10:15:05;4.30;;;1.90;;
68076;SDS011;54866;53.458;14.540;2023-05-29T10:17:42;4.70;;;2.20;;
68076;SDS011;54866;53.458;14.540;2023-05-29T10:20:17;4.00;;;1.70;;
68076;SDS011;54866;53.458;14.540;2023-05-29T10:22:49;3.80;;;1.60;;
68076;SDS011;54866;53.458;14.540;2023-05-29T10:27:50;7.20;;;2.20;;
68076;SDS011;54866;53.458;14.540;2023-05-29T10:30:24;11.60;;;2.20;;
68076;SDS011;54866;53.458;14.540;2023-05-29T10:33:03;6.30;;;2.10;;
68076;SDS011;54866;53.458;14.540;2023-05-29T10:35:53;7.20;;;2.50;;
68076;SDS011;54866;53.458;14.540;2023-05-29T10:38:28;5.40;;;1.90;;
68076;SDS011;54866;53.458;14.540;2023-05-29T10:41:06;6.20;;;2.30;;
68076;SDS011;54866;53.458;14.540;2023-05-29T10:47:09;5.30;;;1.90;;
68076;SDS011;54866;53.458;14.540;2023-05-29T10:49:39;6.00;;;2.30;;
68076;SDS011;54866;53.458;14.540;2023-05-29T10:52:18;4.80;;;2.30;;
68076;SDS011;54866;53.458;14.540;2023-05-29T10:54:53;8.60;;;4.60;;
68076;SDS011;54866;53.458;14.540;2023-05-29T10:57:24;6.60;;;2.40;;
68076;SDS011;54866;53.458;14.540;2023-05-29T11:02:45;5.80;;;1.90;;
68076;SDS011;54866;53.458;14.540;2023-05-29T11:05:24;6.40;;;2.00;;
68076;SDS011;54866;53.458;14.540;2023-05-29T11:07:55;6.70;;;1.70;;
68076;SDS011;54866;53.458;14.540;2023-05-29T11:13:25;4.40;;;2.20;;
68076;SDS011;54866;53.458;14.540;2023-05-29T11:19:05;7.40;;;2.10;;
68076;SDS011;54866;53.458;14.540;2023-05-29T11:24:14;5.40;;;1.90;;
68076;SDS011;54866;53.458;14.540;2023-05-29T11:26:49;7.00;;;2.30;;
68076;SDS011;54866;53.458;14.540;2023-05-29T11:29:22;5.70;;;2.10;;
68076;SDS011;54866;53.458;14.540;2023-05-29T11:31:58;4.20;;;1.80;;
68076;SDS011;54866;53.458;14.540;2023-05-29T11:34:30;5.30;;;1.60;;
68076;SDS011;54866;53.458;14.540;2023-05-29T11:37:00;4.60;;;1.60;;
68076;SDS011;54866;53.458;14.540;2023-05-29T11:39:31;5.40;;;1.80;;
68076;SDS011;54866;53.458;14.540;2023-05-29T11:42:05;4.50;;;1.80;;
68076;SDS011;54866;53.458;14.540;2023-05-29T11:44:36;4.70;;;2.20;;
68076;SDS011;54866;53.458;14.540;2023-05-29T11:47:06;6.50;;;2.10;;
68076;SDS011;54866;53.458;14.540;2023-05-29T11:49:36;5.50;;;2.00;;
68076;SDS011;54866;53.458;14.540;2023-05-29T11:52:07;5.60;;;1.90;;
68076;SDS011;54866;53.458;14.540;2023-05-29T11:54:37;8.20;;;2.40;;
68076;SDS011;54866;53.458;14.540;2023-05-29T11:57:13;6.80;;;2.60;;
68076;SDS011;54866;53.458;14.540;2023-05-29T11:59:47;4.50;;;2.00;;
68076;SDS011;54866;53.458;14.540;2023-05-29T12:02:18;5.30;;;2.00;;
68076;SDS011;54866;53.458;14.540;2023-05-29T12:05:00;5.50;;;1.90;;
68076;SDS011;54866;53.458;14.540;2023-05-29T12:07:31;4.70;;;2.40;;
68076;SDS011;54866;53.458;14.540;2023-05-29T12:10:09;6.10;;;1.60;;
68076;SDS011;54866;53.458;14.540;2023-05-29T12:12:40;4.50;;;1.90;;
68076;SDS011;54866;53.458;14.540;2023-05-29T12:15:10;4.70;;;1.90;;
68076;SDS011;54866;53.458;14.540;2023-05-29T12:17:40;6.70;;;2.00;;
68076;SDS011;54866;53.458;14.540;2023-05-29T12:20:12;6.60;;;1.70;;
68076;SDS011;54866;53.458;14.540;2023-05-29T12:22:43;6.10;;;2.50;;
68076;SDS011;54866;53.458;14.540;2023-05-29T12:25:14;9.00;;;2.30;;
68076;SDS011;54866;53.458;14.540;2023-05-29T12:27:46;8.20;;;2.40;;
68076;SDS011;54866;53.458;14.540;2023-05-29T12:30:19;4.50;;;1.60;;
68076;SDS011;54866;53.458;14.540;2023-05-29T12:32:50;5.90;;;2.40;;
68076;SDS011;54866;53.458;14.540;2023-05-29T12:35:21;6.00;;;2.00;;
68076;SDS011;54866;53.458;14.540;2023-05-29T12:37:54;5.60;;;2.00;;
68076;SDS011;54866;53.458;14.540;2023-05-29T12:40:25;4.60;;;1.80;;
68076;SDS011;54866;53.458;14.540;2023-05-29T12:42:57;5.30;;;1.70;;
68076;SDS011;54866;53.458;14.540;2023-05-29T12:45:29;8.50;;;2.00;;
68076;SDS011;54866;53.458;14.540;2023-05-29T12:48:00;5.60;;;2.00;;
68076;SDS011;54866;53.458;14.540;2023-05-29T12:50:32;5.00;;;2.00;;
68076;SDS011;54866;53.458;14.540;2023-05-29T12:55:34;9.20;;;2.20;;
68076;SDS011;54866;53.458;14.540;2023-05-29T12:58:05;5.40;;;1.60;;
68076;SDS011;54866;53.458;14.540;2023-05-29T13:00:36;5.50;;;1.60;;
68076;SDS011;54866;53.458;14.540;2023-05-29T13:03:07;5.20;;;1.80;;
68076;SDS011;54866;53.458;14.540;2023-05-29T13:05:38;4.60;;;2.00;;
68076;SDS011;54866;53.458;14.540;2023-05-29T13:08:07;6.40;;;1.90;;
68076;SDS011;54866;53.458;14.540;2023-05-29T13:10:37;5.20;;;1.90;;
68076;SDS011;54866;53.458;14.540;2023-05-29T13:13:07;4.10;;;2.00;;
68076;SDS011;54866;53.458;14.540;2023-05-29T13:15:38;6.40;;;2.10;;
68076;SDS011;54866;53.458;14.540;2023-05-29T13:18:08;7.10;;;2.00;;
68076;SDS011;54866;53.458;14.540;2023-05-29T13:20:37;4.40;;;2.00;;
68076;SDS011;54866;53.458;14.540;2023-05-29T13:23:07;6.70;;;1.90;;
68076;SDS011;54866;53.458;14.540;2023-05-29T13:25:36;7.60;;;2.30;;
68076;SDS011;54866;53.458;14.540;2023-05-29T13:28:06;6.30;;;2.00;;
68076;SDS011;54866;53.458;14.540;2023-05-29T13:30:36;4.10;;;1.80;;
68076;SDS011;54866;53.458;14.540;2023-05-29T13:33:05;6.70;;;2.30;;
68076;SDS011;54866;53.458;14.540;2023-05-29T13:35:35;6.40;;;2.00;;
68076;SDS011;54866;53.458;14.540;2023-05-29T13:38:04;9.10;;;2.60;;
68076;SDS011;54866;53.458;14.540;2023-05-29T13:40:34;6.00;;;2.40;;
68076;SDS011;54866;53.458;14.540;2023-05-29T13:43:04;8.20;;;2.50;;
68076;SDS011;54866;53.458;14.540;2023-05-29T13:45:33;11.30;;;2.60;;
68076;SDS011;54866;53.458;14.540;2023-05-29T13:48:03;7.70;;;2.40;;
68076;SDS011;54866;53.458;14.540;2023-05-29T13:50:33;5.30;;;2.10;;
68076;SDS011;54866;53.458;14.540;2023-05-29T13:53:02;7.20;;;2.00;;
68076;SDS011;54866;53.458;14.540;2023-05-29T13:55:32;7.10;;;2.00;;
68076;SDS011;54866;53.458;14.540;2023-05-29T13:58:01;3.80;;;1.60;;
68076;SDS011;54866;53.458;14.540;2023-05-29T14:00:31;4.80;;;1.70;;
68076;SDS011;54866;53.458;14.540;2023-05-29T14:03:01;5.90;;;2.20;;
68076;SDS011;54866;53.458;14.540;2023-05-29T14:05:30;6.10;;;2.00;;
68076;SDS011;54866;53.458;14.540;2023-05-29T14:08:00;5.00;;;2.30;;
68076;SDS011;54866;53.458;14.540;2023-05-29T14:10:29;8.40;;;2.40;;
68076;SDS011;54866;53.458;14.540;2023-05-29T14:13:00;7.70;;;3.30;;
68076;SDS011;54866;53.458;14.540;2023-05-29T14:15:29;5.00;;;2.50;;
68076;SDS011;54866;53.458;14.540;2023-05-29T14:17:59;7.80;;;2.60;;
68076;SDS011;54866;53.458;14.540;2023-05-29T14:20:29;5.60;;;2.40;;
68076;SDS011;54866;53.458;14.540;2023-05-29T14:22:59;5.50;;;2.10;;
68076;SDS011;54866;53.458;14.540;2023-05-29T14:25:29;6.10;;;1.80;;
68076;SDS011;54866;53.458;14.540;2023-05-29T14:27:58;4.60;;;1.60;;
68076;SDS011;54866;53.458;14.540;2023-05-29T14:30:28;6.70;;;1.80;;
68076;SDS011;54866;53.458;14.540;2023-05-29T14:32:57;5.20;;;1.90;;
68076;SDS011;54866;53.458;14.540;2023-05-29T14:35:27;5.10;;;1.70;;
68076;SDS011;54866;53.458;14.540;2023-05-29T14:37:57;6.70;;;2.40;;
68076;SDS011;54866;53.458;14.540;2023-05-29T14:40:27;4.50;;;1.60;;
68076;SDS011;54866;53.458;14.540;2023-05-29T14:42:57;6.00;;;1.40;;
68076;SDS011;54866;53.458;14.540;2023-05-29T14:45:27;6.60;;;2.20;;
68076;SDS011;54866;53.458;14.540;2023-05-29T14:47:56;6.40;;;2.40;;
68076;SDS011;54866;53.458;14.540;2023-05-29T14:50:27;8.40;;;2.50;;
68076;SDS011;54866;53.458;14.540;2023-05-29T14:52:57;6.70;;;1.80;;
68076;SDS011;54866;53.458;14.540;2023-05-29T14:55:26;6.00;;;2.50;;
68076;SDS011;54866;53.458;14.540;2023-05-29T14:57:57;9.60;;;2.40;;
68076;SDS011;54866;53.458;14.540;2023-05-29T15:00:26;6.60;;;1.90;;
68076;SDS011;54866;53.458;14.540;2023-05-29T15:02:56;7.90;;;2.20;;
68076;SDS011;54866;53.458;14.540;2023-05-29T15:05:26;6.40;;;1.70;;
68076;SDS011;54866;53.458;14.540;2023-05-29T15:07:56;4.70;;;1.90;;
68076;SDS011;54866;53.458;14.540;2023-05-29T15:10:26;8.60;;;2.60;;
68076;SDS011;54866;53.458;14.540;2023-05-29T15:12:56;10.00;;;2.30;;
68076;SDS011;54866;53.458;14.540;2023-05-29T15:15:26;6.50;;;2.30;;
68076;SDS011;54866;53.458;14.540;2023-05-29T15:17:56;5.30;;;2.30;;
68076;SDS011;54866;53.458;14.540;2023-05-29T15:20:27;7.70;;;2.80;;